WetterOnline ( https://www.wetteronline.de )

Wetter aktuell Leutkirch

Aktuelles Wetter: Leutkirch-Herlazhofen (671m)

6-stündlich | Neueste Meldungen
Ortszeit Temperatur Wetter
Fr, 14.08. 14:00 20.0° C wolkig
Fr, 14.08. 8:00 16.9° C bedeckt
Fr, 14.08. 2:00 12.8° C wolkenlos
Do, 13.08. 20:00 19.6° C bewölkt
Do, 13.08. 14:00 21.8° C bewölkt
Do, 13.08. 8:00 17.6° C bewölkt
Do, 13.08. 2:00 18.3° C leicht bewölkt
Mi, 12.08. 20:00 23.5° C leicht bewölkt
Ortszeit Temperatur Wetter
Fr, 14.08. 16:30 21.9° C leicht bewölkt
Fr, 14.08. 16:20 21.9° C leicht bewölkt
Fr, 14.08. 16:10 22.1° C bewölkt
Fr, 14.08. 16:00 21.5° C bedeckt
Fr, 14.08. 15:50 21.5° C bedeckt
Fr, 14.08. 15:40 21.1° C bedeckt
Fr, 14.08. 15:30 20.5° C bewölkt
Fr, 14.08. 15:00 21.0° C wolkig
Ortszeit Relative Feuchte Sichtweite
Fr, 14.08. 14:00 78% 40 km
Fr, 14.08. 8:00 85% 45 km
Fr, 14.08. 2:00 96% 21 km
Do, 13.08. 20:00 83% 30 km
Do, 13.08. 14:00 64% 40 km
Do, 13.08. 8:00 89% 27 km
Do, 13.08. 2:00 86% 28 km
Mi, 12.08. 20:00 74% 25 km
Ortszeit Relative Feuchte Sichtweite
Fr, 14.08. 16:30 68% 55 km
Fr, 14.08. 16:20 68% -
Fr, 14.08. 16:10 66% -
Fr, 14.08. 16:00 70% 65 km
Fr, 14.08. 15:50 70% -
Fr, 14.08. 15:40 73% -
Fr, 14.08. 15:30 75% 40 km
Fr, 14.08. 15:00 76% 40 km
Ortszeit Niederschlagsmenge Niederschlagsart
Fr, 14.08. 14:00 1 l/m2 in 6 Std. Regen
Fr, 14.08. 8:00 0.0 l/m2 in 12 Std. -
Fr, 14.08. 2:00 0.0 l/m2 in 6 Std. -
Do, 13.08. 20:00 0.2 l/m2 in 12 Std. Regen
Do, 13.08. 14:00 0.1 l/m2 in 6 Std. Regen
Do, 13.08. 8:00 0.0 l/m2 in 12 Std. -
Do, 13.08. 2:00 0.0 l/m2 in 6 Std. -
Mi, 12.08. 20:00 0.0 l/m2 in 12 Std. -
Ortszeit Niederschlagsmenge Niederschlagsart
Fr, 14.08. 16:30 0.0 l/m2 in 1 Std. -
Fr, 14.08. 16:20 keine Meldung -
Fr, 14.08. 16:10 keine Meldung -
Fr, 14.08. 16:00 0.0 l/m2 in 1 Std. -
Fr, 14.08. 15:50 keine Meldung -
Fr, 14.08. 15:40 keine Meldung -
Fr, 14.08. 15:30 0.0 l/m2 in 1 Std. -
Fr, 14.08. 15:00 0.0 l/m2 in 1 Std. -
Ortszeit Stärke Spitze Richtung
km/h Bft. km/h Grad Sektor
Fr, 14.08. 14:00 11 2 25 220° SW
Fr, 14.08. 8:00 9 2 17 220° SW
Fr, 14.08. 2:00 4 1 7 180° S
Do, 13.08. 20:00 4 1 32 160° S
Do, 13.08. 14:00 7 2 25 340° N
Do, 13.08. 8:00 2 1 11 270° W
Do, 13.08. 2:00 7 2 14 170° S
Mi, 12.08. 20:00 0 0 14 - -
Ortszeit Stärke Spitze Richtung
km/h Bft. km/h Grad Sektor
Fr, 14.08. 16:30 11 2 20 250° W
Fr, 14.08. 16:20 11 2 - 250° W
Fr, 14.08. 16:10 11 2 - 240° SW
Fr, 14.08. 16:00 9 2 20 230° SW
Fr, 14.08. 15:50 9 2 - 230° SW
Fr, 14.08. 15:40 11 2 - 230° SW
Fr, 14.08. 15:30 13 3 20 230° SW
Fr, 14.08. 15:00 13 3 19 230° SW
Ortszeit Untergrenze Bedeckung Gattung
total tief tief mittel hoch
Fr, 14.08. 14:00 480 m 7/8 1/8 - - -
Fr, 14.08. 8:00 3000 m 8/8 8/8 - - -
Fr, 14.08. 2:00 - 0/8 0/8 - - -
Do, 13.08. 20:00 1800 m 8/8 7/8 - - -
Do, 13.08. 14:00 3000 m 8/8 7/8 - - -
Do, 13.08. 8:00 2400 m 8/8 7/8 - - -
Do, 13.08. 2:00 7800 m 3/8 0/8 - - -
Mi, 12.08. 20:00 9000 m 5/8 0/8 - - -
Ortszeit Bedeckungsgrad in Achtel und Wolkenuntergrenze
Fr, 14.08. 16:30 4(3000m)
Fr, 14.08. 16:20 4(3000m)
Fr, 14.08. 16:10 7(3000m)
Fr, 14.08. 16:00 8(2700m)
Fr, 14.08. 15:50 8(2700m)
Fr, 14.08. 15:40 8(2700m)
Fr, 14.08. 15:30 6(2400m) 8(4800m)
Fr, 14.08. 15:00 1(570m) 8(4800m) 8(4800m)
Ortszeit Luftdruck NN (hPa) Tendenz (hPa in 3 Std.)
Fr, 14.08. 14:00 1015 - 0,5
Fr, 14.08. 8:00 1016 + 0,4
Fr, 14.08. 2:00 1017 + 0,2
Do, 13.08. 20:00 1015 - 1,4
Do, 13.08. 14:00 1016 + 1,1
Do, 13.08. 8:00 1015 + 0,1
Do, 13.08. 2:00 1015 - 0,6
Mi, 12.08. 20:00 1013 - 0,4
Ortszeit Luftdruck NN (hPa) Tendenz (hPa in 3 Std.)
Fr, 14.08. 16:30 1013 - 1,3
Fr, 14.08. 16:20 1013 keine Meldung
Fr, 14.08. 16:10 1013 keine Meldung
Fr, 14.08. 16:00 1014 - 1,3
Fr, 14.08. 15:50 1014 keine Meldung
Fr, 14.08. 15:40 1014 keine Meldung
Fr, 14.08. 15:30 1014 - 1,0
Fr, 14.08. 15:00 1014 - 1,1
Ortszeit Schneehöhe (cm)
Fr, 14.08. 14:00 -
Fr, 14.08. 8:00 -
Fr, 14.08. 2:00 -
Do, 13.08. 20:00 -
Do, 13.08. 14:00 -
Do, 13.08. 8:00 -
Do, 13.08. 2:00 -
Mi, 12.08. 20:00 -
Ortszeit Schneehöhe (cm)
Fr, 14.08. 16:30 -
Fr, 14.08. 16:20 -
Fr, 14.08. 16:10 -
Fr, 14.08. 16:00 -
Fr, 14.08. 15:50 -
Fr, 14.08. 15:40 -
Fr, 14.08. 15:30 -
Fr, 14.08. 15:00 -
Link zu dieser Seite / Seite empfehlen

Das Wetter in ...